Alyth, United Kingdom
Current Conditions -  °F | °C
As of 4:50 PM on Thursday 23 Oct 2014 (Local Time) from EGPN Reporting Station
Rain Showers Rain Showers  
Wind Chill: 13°   Ceiling: 3500
Heat Index: 13°   Visibility: 6mi
Dew Point: 12°   Wind: 12mph
Humidity: 94%   Direction: 230°SW
Pressure: 29.68"   Gusts: NA
Location:  56.62°N, 3.23°W
Report Text: EGPN 231550Z 23010KT 9999 -SHRA FEW011 BKN035 13/12 Q1005
Loading
Personal Weather Stations






























Interactive Weather Map
Tropical Storm Tracking
New forecast layout! Learn more

10-Day Weather Forecast

Advertisements
Track Severe Weather on mobile